sensor_id;sensor_type;location;lat;lon;timestamp;P1;durP1;ratioP1;P2;durP2;ratioP2
19257;SDS011;9763;48.780;9.212;2022-12-05T00:02:22;6.87;;;4.90;;
19257;SDS011;9763;48.780;9.212;2022-12-05T00:05:46;7.10;;;5.03;;
19257;SDS011;9763;48.780;9.212;2022-12-05T00:09:10;6.00;;;4.30;;
19257;SDS011;9763;48.780;9.212;2022-12-05T00:12:36;8.23;;;6.17;;
19257;SDS011;9763;48.780;9.212;2022-12-05T00:16:00;8.60;;;5.03;;
19257;SDS011;9763;48.780;9.212;2022-12-05T00:19:23;6.07;;;4.63;;
19257;SDS011;9763;48.780;9.212;2022-12-05T00:22:47;7.17;;;5.00;;
19257;SDS011;9763;48.780;9.212;2022-12-05T00:26:11;6.70;;;5.20;;
19257;SDS011;9763;48.780;9.212;2022-12-05T00:29:36;7.80;;;4.90;;
19257;SDS011;9763;48.780;9.212;2022-12-05T00:33:00;5.90;;;5.10;;
19257;SDS011;9763;48.780;9.212;2022-12-05T00:36:24;8.33;;;5.87;;
19257;SDS011;9763;48.780;9.212;2022-12-05T00:39:49;7.80;;;6.03;;
19257;SDS011;9763;48.780;9.212;2022-12-05T00:43:13;5.97;;;4.80;;
19257;SDS011;9763;48.780;9.212;2022-12-05T00:46:38;7.13;;;5.40;;
19257;SDS011;9763;48.780;9.212;2022-12-05T00:50:02;5.93;;;4.93;;
19257;SDS011;9763;48.780;9.212;2022-12-05T00:53:26;7.67;;;5.53;;
19257;SDS011;9763;48.780;9.212;2022-12-05T00:56:50;6.70;;;5.27;;
19257;SDS011;9763;48.780;9.212;2022-12-05T01:00:17;7.83;;;5.13;;
19257;SDS011;9763;48.780;9.212;2022-12-05T01:03:43;6.23;;;4.97;;
19257;SDS011;9763;48.780;9.212;2022-12-05T01:07:08;6.43;;;4.60;;
19257;SDS011;9763;48.780;9.212;2022-12-05T01:10:32;5.90;;;4.93;;
19257;SDS011;9763;48.780;9.212;2022-12-05T01:13:55;7.37;;;5.20;;
19257;SDS011;9763;48.780;9.212;2022-12-05T01:17:20;6.33;;;4.57;;
19257;SDS011;9763;48.780;9.212;2022-12-05T01:20:45;6.27;;;4.57;;
19257;SDS011;9763;48.780;9.212;2022-12-05T01:24:09;7.90;;;5.23;;
19257;SDS011;9763;48.780;9.212;2022-12-05T01:27:34;6.53;;;4.77;;
19257;SDS011;9763;48.780;9.212;2022-12-05T01:30:57;5.50;;;4.57;;
19257;SDS011;9763;48.780;9.212;2022-12-05T01:34:27;5.97;;;4.50;;
19257;SDS011;9763;48.780;9.212;2022-12-05T01:37:52;7.30;;;4.80;;
19257;SDS011;9763;48.780;9.212;2022-12-05T01:41:16;6.27;;;4.57;;
19257;SDS011;9763;48.780;9.212;2022-12-05T01:44:59;6.80;;;4.03;;
19257;SDS011;9763;48.780;9.212;2022-12-05T01:48:35;7.07;;;4.20;;
19257;SDS011;9763;48.780;9.212;2022-12-05T01:52:00;6.07;;;4.63;;
19257;SDS011;9763;48.780;9.212;2022-12-05T01:55:29;6.37;;;4.80;;
19257;SDS011;9763;48.780;9.212;2022-12-05T01:58:54;5.47;;;4.73;;
19257;SDS011;9763;48.780;9.212;2022-12-05T02:02:18;8.03;;;4.63;;
19257;SDS011;9763;48.780;9.212;2022-12-05T02:05:42;5.17;;;4.20;;
19257;SDS011;9763;48.780;9.212;2022-12-05T02:09:10;5.50;;;4.30;;
19257;SDS011;9763;48.780;9.212;2022-12-05T02:12:35;5.93;;;4.83;;
19257;SDS011;9763;48.780;9.212;2022-12-05T02:16:01;5.70;;;4.30;;
19257;SDS011;9763;48.780;9.212;2022-12-05T02:19:48;4.60;;;3.67;;
19257;SDS011;9763;48.780;9.212;2022-12-05T02:27:41;6.10;;;5.50;;
19257;SDS011;9763;48.780;9.212;2022-12-05T02:31:35;6.60;;;4.43;;
19257;SDS011;9763;48.780;9.212;2022-12-05T02:35:11;4.57;;;3.97;;
19257;SDS011;9763;48.780;9.212;2022-12-05T02:38:48;5.40;;;4.20;;
19257;SDS011;9763;48.780;9.212;2022-12-05T02:42:23;5.67;;;4.80;;
19257;SDS011;9763;48.780;9.212;2022-12-05T02:45:55;5.70;;;4.30;;
19257;SDS011;9763;48.780;9.212;2022-12-05T02:49:28;7.23;;;5.50;;
19257;SDS011;9763;48.780;9.212;2022-12-05T02:52:55;5.93;;;5.03;;
19257;SDS011;9763;48.780;9.212;2022-12-05T02:56:25;9.33;;;6.60;;
19257;SDS011;9763;48.780;9.212;2022-12-05T02:59:51;7.33;;;4.83;;
19257;SDS011;9763;48.780;9.212;2022-12-05T03:03:15;8.67;;;5.30;;
19257;SDS011;9763;48.780;9.212;2022-12-05T03:06:44;7.63;;;5.37;;
19257;SDS011;9763;48.780;9.212;2022-12-05T03:10:14;7.70;;;6.23;;
19257;SDS011;9763;48.780;9.212;2022-12-05T03:13:48;5.80;;;4.43;;
19257;SDS011;9763;48.780;9.212;2022-12-05T03:17:16;5.33;;;4.37;;
19257;SDS011;9763;48.780;9.212;2022-12-05T03:20:44;8.10;;;5.83;;
19257;SDS011;9763;48.780;9.212;2022-12-05T03:24:14;8.10;;;5.80;;
19257;SDS011;9763;48.780;9.212;2022-12-05T03:27:39;6.70;;;5.00;;
19257;SDS011;9763;48.780;9.212;2022-12-05T03:31:09;7.27;;;5.10;;
19257;SDS011;9763;48.780;9.212;2022-12-05T03:34:48;7.30;;;4.80;;
19257;SDS011;9763;48.780;9.212;2022-12-05T03:38:25;9.00;;;5.90;;
19257;SDS011;9763;48.780;9.212;2022-12-05T03:41:59;7.10;;;5.00;;
19257;SDS011;9763;48.780;9.212;2022-12-05T03:45:33;7.07;;;5.57;;
19257;SDS011;9763;48.780;9.212;2022-12-05T03:49:06;8.53;;;6.20;;
19257;SDS011;9763;48.780;9.212;2022-12-05T03:52:35;8.50;;;4.57;;
19257;SDS011;9763;48.780;9.212;2022-12-05T03:56:29;6.50;;;4.93;;
19257;SDS011;9763;48.780;9.212;2022-12-05T04:00:03;5.63;;;4.87;;
19257;SDS011;9763;48.780;9.212;2022-12-05T04:03:30;6.40;;;4.70;;
19257;SDS011;9763;48.780;9.212;2022-12-05T04:07:03;6.70;;;4.43;;
19257;SDS011;9763;48.780;9.212;2022-12-05T04:10:31;6.20;;;4.80;;
19257;SDS011;9763;48.780;9.212;2022-12-05T04:14:10;9.30;;;5.60;;
19257;SDS011;9763;48.780;9.212;2022-12-05T04:17:44;6.53;;;4.77;;
19257;SDS011;9763;48.780;9.212;2022-12-05T04:21:14;4.70;;;4.20;;
19257;SDS011;9763;48.780;9.212;2022-12-05T04:24:59;5.00;;;3.87;;
19257;SDS011;9763;48.780;9.212;2022-12-05T04:28:44;5.60;;;4.70;;
19257;SDS011;9763;48.780;9.212;2022-12-05T04:32:18;5.33;;;4.07;;
19257;SDS011;9763;48.780;9.212;2022-12-05T04:35:51;5.60;;;3.93;;
19257;SDS011;9763;48.780;9.212;2022-12-05T04:39:23;7.30;;;4.40;;
19257;SDS011;9763;48.780;9.212;2022-12-05T04:42:55;5.43;;;4.37;;
19257;SDS011;9763;48.780;9.212;2022-12-05T04:46:23;6.93;;;5.03;;
19257;SDS011;9763;48.780;9.212;2022-12-05T04:49:47;7.03;;;4.30;;
19257;SDS011;9763;48.780;9.212;2022-12-05T04:53:15;6.20;;;4.10;;
19257;SDS011;9763;48.780;9.212;2022-12-05T04:56:43;5.90;;;4.40;;
19257;SDS011;9763;48.780;9.212;2022-12-05T05:00:12;6.07;;;5.27;;
19257;SDS011;9763;48.780;9.212;2022-12-05T05:03:37;7.30;;;4.63;;
19257;SDS011;9763;48.780;9.212;2022-12-05T05:07:05;6.10;;;4.43;;
19257;SDS011;9763;48.780;9.212;2022-12-05T05:10:34;5.83;;;4.80;;
19257;SDS011;9763;48.780;9.212;2022-12-05T05:14:06;5.63;;;4.20;;
19257;SDS011;9763;48.780;9.212;2022-12-05T05:17:30;6.00;;;4.20;;
19257;SDS011;9763;48.780;9.212;2022-12-05T05:20:53;6.17;;;4.97;;
19257;SDS011;9763;48.780;9.212;2022-12-05T05:24:18;7.47;;;5.30;;
19257;SDS011;9763;48.780;9.212;2022-12-05T05:27:47;5.70;;;4.57;;
19257;SDS011;9763;48.780;9.212;2022-12-05T05:31:12;5.70;;;4.53;;
19257;SDS011;9763;48.780;9.212;2022-12-05T05:34:38;5.93;;;4.50;;
19257;SDS011;9763;48.780;9.212;2022-12-05T05:38:02;7.17;;;5.23;;
19257;SDS011;9763;48.780;9.212;2022-12-05T05:41:27;8.90;;;5.10;;
19257;SDS011;9763;48.780;9.212;2022-12-05T05:44:56;5.83;;;5.10;;
19257;SDS011;9763;48.780;9.212;2022-12-05T05:48:19;5.30;;;4.57;;
19257;SDS011;9763;48.780;9.212;2022-12-05T05:51:43;6.10;;;4.97;;
19257;SDS011;9763;48.780;9.212;2022-12-05T05:55:07;7.20;;;4.73;;
19257;SDS011;9763;48.780;9.212;2022-12-05T05:58:32;7.10;;;4.73;;
19257;SDS011;9763;48.780;9.212;2022-12-05T06:01:57;4.37;;;3.97;;
19257;SDS011;9763;48.780;9.212;2022-12-05T06:05:20;4.80;;;4.30;;
19257;SDS011;9763;48.780;9.212;2022-12-05T06:08:44;4.97;;;3.73;;
19257;SDS011;9763;48.780;9.212;2022-12-05T06:12:08;5.10;;;3.80;;
19257;SDS011;9763;48.780;9.212;2022-12-05T06:15:32;6.70;;;5.30;;
19257;SDS011;9763;48.780;9.212;2022-12-05T06:18:57;6.80;;;3.90;;
19257;SDS011;9763;48.780;9.212;2022-12-05T06:22:20;6.17;;;4.50;;
19257;SDS011;9763;48.780;9.212;2022-12-05T06:25:45;5.50;;;4.87;;
19257;SDS011;9763;48.780;9.212;2022-12-05T06:29:10;7.37;;;4.93;;
19257;SDS011;9763;48.780;9.212;2022-12-05T06:32:34;6.50;;;4.17;;
19257;SDS011;9763;48.780;9.212;2022-12-05T06:36:03;6.30;;;5.13;;
19257;SDS011;9763;48.780;9.212;2022-12-05T06:39:30;5.97;;;4.57;;
19257;SDS011;9763;48.780;9.212;2022-12-05T06:42:53;8.63;;;4.73;;
19257;SDS011;9763;48.780;9.212;2022-12-05T06:46:17;5.50;;;4.30;;
19257;SDS011;9763;48.780;9.212;2022-12-05T06:49:41;5.63;;;4.37;;
19257;SDS011;9763;48.780;9.212;2022-12-05T06:53:06;7.00;;;4.27;;
19257;SDS011;9763;48.780;9.212;2022-12-05T06:56:29;4.73;;;3.80;;
19257;SDS011;9763;48.780;9.212;2022-12-05T06:59:53;6.03;;;4.70;;
19257;SDS011;9763;48.780;9.212;2022-12-05T07:03:37;5.13;;;3.83;;
19257;SDS011;9763;48.780;9.212;2022-12-05T07:07:00;5.23;;;4.30;;
19257;SDS011;9763;48.780;9.212;2022-12-05T07:10:25;5.63;;;4.10;;
19257;SDS011;9763;48.780;9.212;2022-12-05T07:13:48;8.30;;;4.80;;
19257;SDS011;9763;48.780;9.212;2022-12-05T07:17:12;4.30;;;3.90;;
19257;SDS011;9763;48.780;9.212;2022-12-05T07:20:35;6.53;;;4.77;;
19257;SDS011;9763;48.780;9.212;2022-12-05T07:24:19;7.70;;;4.73;;
19257;SDS011;9763;48.780;9.212;2022-12-05T07:27:44;5.03;;;3.83;;
19257;SDS011;9763;48.780;9.212;2022-12-05T07:31:08;4.40;;;3.40;;
19257;SDS011;9763;48.780;9.212;2022-12-05T07:34:34;4.80;;;3.70;;
19257;SDS011;9763;48.780;9.212;2022-12-05T07:37:59;7.97;;;3.77;;
19257;SDS011;9763;48.780;9.212;2022-12-05T07:41:23;5.03;;;3.90;;
19257;SDS011;9763;48.780;9.212;2022-12-05T07:44:50;5.13;;;3.73;;
19257;SDS011;9763;48.780;9.212;2022-12-05T07:48:13;5.57;;;3.90;;
19257;SDS011;9763;48.780;9.212;2022-12-05T07:51:39;5.63;;;4.63;;
19257;SDS011;9763;48.780;9.212;2022-12-05T07:55:03;7.10;;;4.97;;
19257;SDS011;9763;48.780;9.212;2022-12-05T07:58:28;5.17;;;4.27;;
19257;SDS011;9763;48.780;9.212;2022-12-05T08:01:54;4.53;;;3.80;;
19257;SDS011;9763;48.780;9.212;2022-12-05T08:05:18;5.97;;;4.47;;
19257;SDS011;9763;48.780;9.212;2022-12-05T08:08:42;5.17;;;4.10;;
19257;SDS011;9763;48.780;9.212;2022-12-05T08:12:06;4.20;;;3.80;;
19257;SDS011;9763;48.780;9.212;2022-12-05T08:15:32;4.50;;;3.87;;
19257;SDS011;9763;48.780;9.212;2022-12-05T08:18:59;5.87;;;4.20;;
19257;SDS011;9763;48.780;9.212;2022-12-05T08:22:25;4.47;;;3.97;;
19257;SDS011;9763;48.780;9.212;2022-12-05T08:25:48;5.37;;;3.83;;
19257;SDS011;9763;48.780;9.212;2022-12-05T08:29:13;4.17;;;3.77;;
19257;SDS011;9763;48.780;9.212;2022-12-05T08:32:38;3.80;;;3.23;;
19257;SDS011;9763;48.780;9.212;2022-12-05T08:36:03;3.87;;;3.57;;
19257;SDS011;9763;48.780;9.212;2022-12-05T08:39:30;5.33;;;4.40;;
19257;SDS011;9763;48.780;9.212;2022-12-05T08:42:59;4.50;;;3.87;;
19257;SDS011;9763;48.780;9.212;2022-12-05T08:46:23;3.50;;;3.20;;
19257;SDS011;9763;48.780;9.212;2022-12-05T08:49:47;4.00;;;3.20;;
19257;SDS011;9763;48.780;9.212;2022-12-05T08:53:11;6.47;;;3.30;;
19257;SDS011;9763;48.780;9.212;2022-12-05T08:56:35;4.40;;;3.13;;
19257;SDS011;9763;48.780;9.212;2022-12-05T09:00:00;4.00;;;3.60;;
19257;SDS011;9763;48.780;9.212;2022-12-05T09:03:27;4.23;;;3.30;;
19257;SDS011;9763;48.780;9.212;2022-12-05T09:06:51;4.67;;;3.50;;
19257;SDS011;9763;48.780;9.212;2022-12-05T09:10:15;4.17;;;3.57;;
19257;SDS011;9763;48.780;9.212;2022-12-05T09:13:40;3.50;;;3.20;;
19257;SDS011;9763;48.780;9.212;2022-12-05T09:17:04;3.90;;;3.50;;
19257;SDS011;9763;48.780;9.212;2022-12-05T09:20:29;4.43;;;3.60;;
19257;SDS011;9763;48.780;9.212;2022-12-05T09:23:53;6.07;;;3.50;;
19257;SDS011;9763;48.780;9.212;2022-12-05T09:27:18;3.23;;;2.87;;
19257;SDS011;9763;48.780;9.212;2022-12-05T09:30:42;3.07;;;2.77;;
19257;SDS011;9763;48.780;9.212;2022-12-05T09:34:06;3.23;;;2.33;;
19257;SDS011;9763;48.780;9.212;2022-12-05T09:37:29;4.03;;;3.60;;
19257;SDS011;9763;48.780;9.212;2022-12-05T09:41:02;3.30;;;3.00;;
19257;SDS011;9763;48.780;9.212;2022-12-05T09:44:40;2.90;;;2.40;;
19257;SDS011;9763;48.780;9.212;2022-12-05T09:48:27;2.10;;;2.00;;
19257;SDS011;9763;48.780;9.212;2022-12-05T09:51:53;2.57;;;2.37;;
19257;SDS011;9763;48.780;9.212;2022-12-05T09:55:19;2.53;;;2.33;;
19257;SDS011;9763;48.780;9.212;2022-12-05T09:58:44;3.03;;;2.30;;
19257;SDS011;9763;48.780;9.212;2022-12-05T10:02:14;2.50;;;2.30;;
19257;SDS011;9763;48.780;9.212;2022-12-05T10:05:56;2.20;;;2.00;;
19257;SDS011;9763;48.780;9.212;2022-12-05T10:09:38;2.70;;;1.93;;
19257;SDS011;9763;48.780;9.212;2022-12-05T10:13:28;3.50;;;2.53;;
19257;SDS011;9763;48.780;9.212;2022-12-05T10:17:09;2.73;;;2.53;;
19257;SDS011;9763;48.780;9.212;2022-12-05T10:20:46;3.63;;;2.77;;
19257;SDS011;9763;48.780;9.212;2022-12-05T10:24:14;2.43;;;2.23;;
19257;SDS011;9763;48.780;9.212;2022-12-05T10:27:45;2.47;;;2.27;;
19257;SDS011;9763;48.780;9.212;2022-12-05T10:31:13;2.47;;;2.27;;
19257;SDS011;9763;48.780;9.212;2022-12-05T10:34:44;2.63;;;2.43;;
19257;SDS011;9763;48.780;9.212;2022-12-05T10:38:10;2.60;;;2.40;;
19257;SDS011;9763;48.780;9.212;2022-12-05T10:41:42;3.03;;;2.37;;
19257;SDS011;9763;48.780;9.212;2022-12-05T10:45:06;3.73;;;3.13;;
19257;SDS011;9763;48.780;9.212;2022-12-05T10:48:38;2.50;;;2.30;;
19257;SDS011;9763;48.780;9.212;2022-12-05T10:52:05;3.50;;;3.20;;
19257;SDS011;9763;48.780;9.212;2022-12-05T10:55:30;3.40;;;2.80;;
19257;SDS011;9763;48.780;9.212;2022-12-05T10:58:58;3.50;;;3.20;;
19257;SDS011;9763;48.780;9.212;2022-12-05T11:02:23;3.40;;;2.83;;
19257;SDS011;9763;48.780;9.212;2022-12-05T11:05:50;4.50;;;3.33;;
19257;SDS011;9763;48.780;9.212;2022-12-05T11:09:19;3.07;;;2.67;;
19257;SDS011;9763;48.780;9.212;2022-12-05T11:12:45;3.80;;;2.97;;
19257;SDS011;9763;48.780;9.212;2022-12-05T11:16:12;2.80;;;2.60;;
19257;SDS011;9763;48.780;9.212;2022-12-05T11:19:47;3.30;;;2.97;;
19257;SDS011;9763;48.780;9.212;2022-12-05T11:23:15;3.07;;;2.77;;
19257;SDS011;9763;48.780;9.212;2022-12-05T11:26:47;3.47;;;2.90;;
19257;SDS011;9763;48.780;9.212;2022-12-05T11:30:14;3.90;;;2.60;;
19257;SDS011;9763;48.780;9.212;2022-12-05T11:33:40;3.03;;;2.80;;
19257;SDS011;9763;48.780;9.212;2022-12-05T11:37:05;3.50;;;2.60;;
19257;SDS011;9763;48.780;9.212;2022-12-05T11:40:42;3.30;;;2.53;;
19257;SDS011;9763;48.780;9.212;2022-12-05T11:44:21;2.93;;;2.63;;
19257;SDS011;9763;48.780;9.212;2022-12-05T11:52:17;2.97;;;2.67;;
19257;SDS011;9763;48.780;9.212;2022-12-05T11:56:02;3.80;;;3.07;;
19257;SDS011;9763;48.780;9.212;2022-12-05T11:59:55;3.40;;;3.10;;
19257;SDS011;9763;48.780;9.212;2022-12-05T12:03:42;2.60;;;2.30;;
19257;SDS011;9763;48.780;9.212;2022-12-05T12:07:46;2.13;;;1.73;;
19257;SDS011;9763;48.780;9.212;2022-12-05T12:11:26;2.30;;;2.10;;
19257;SDS011;9763;48.780;9.212;2022-12-05T12:15:03;2.60;;;2.40;;
19257;SDS011;9763;48.780;9.212;2022-12-05T12:18:56;2.97;;;2.77;;
19257;SDS011;9763;48.780;9.212;2022-12-05T12:22:46;3.30;;;3.00;;
19257;SDS011;9763;48.780;9.212;2022-12-05T12:26:31;3.77;;;2.83;;
19257;SDS011;9763;48.780;9.212;2022-12-05T12:30:16;5.57;;;3.47;;
19257;SDS011;9763;48.780;9.212;2022-12-05T12:33:47;3.20;;;2.80;;
19257;SDS011;9763;48.780;9.212;2022-12-05T12:37:23;4.10;;;3.23;;
19257;SDS011;9763;48.780;9.212;2022-12-05T12:41:04;3.20;;;2.90;;
19257;SDS011;9763;48.780;9.212;2022-12-05T12:49:00;3.70;;;3.27;;
19257;SDS011;9763;48.780;9.212;2022-12-05T12:52:57;3.60;;;2.90;;
19257;SDS011;9763;48.780;9.212;2022-12-05T12:56:50;4.00;;;3.10;;
19257;SDS011;9763;48.780;9.212;2022-12-05T13:00:40;4.30;;;2.70;;
19257;SDS011;9763;48.780;9.212;2022-12-05T13:04:21;3.20;;;2.90;;
19257;SDS011;9763;48.780;9.212;2022-12-05T13:07:51;3.30;;;3.00;;
19257;SDS011;9763;48.780;9.212;2022-12-05T13:11:20;3.47;;;3.17;;
19257;SDS011;9763;48.780;9.212;2022-12-05T13:14:49;3.40;;;3.10;;
19257;SDS011;9763;48.780;9.212;2022-12-05T13:18:19;3.00;;;2.60;;
19257;SDS011;9763;48.780;9.212;2022-12-05T13:21:47;3.40;;;2.37;;
19257;SDS011;9763;48.780;9.212;2022-12-05T13:25:13;3.90;;;2.87;;
19257;SDS011;9763;48.780;9.212;2022-12-05T13:28:38;2.90;;;2.60;;
19257;SDS011;9763;48.780;9.212;2022-12-05T13:32:22;3.20;;;2.87;;
19257;SDS011;9763;48.780;9.212;2022-12-05T13:35:53;3.50;;;2.87;;
19257;SDS011;9763;48.780;9.212;2022-12-05T13:39:39;3.03;;;2.73;;
19257;SDS011;9763;48.780;9.212;2022-12-05T13:43:21;4.40;;;3.47;;
19257;SDS011;9763;48.780;9.212;2022-12-05T13:46:50;4.53;;;3.47;;
19257;SDS011;9763;48.780;9.212;2022-12-05T13:50:15;4.20;;;3.47;;
19257;SDS011;9763;48.780;9.212;2022-12-05T13:53:46;3.50;;;3.20;;
19257;SDS011;9763;48.780;9.212;2022-12-05T14:05:36;4.27;;;3.87;;
19257;SDS011;9763;48.780;9.212;2022-12-05T14:12:54;4.20;;;3.67;;
19257;SDS011;9763;48.780;9.212;2022-12-05T14:20:18;4.33;;;3.60;;
19257;SDS011;9763;48.780;9.212;2022-12-05T14:23:56;3.60;;;3.30;;
19257;SDS011;9763;48.780;9.212;2022-12-05T14:27:34;2.80;;;2.60;;
19257;SDS011;9763;48.780;9.212;2022-12-05T14:31:16;3.50;;;3.20;;
19257;SDS011;9763;48.780;9.212;2022-12-05T14:35:01;3.73;;;3.13;;
19257;SDS011;9763;48.780;9.212;2022-12-05T14:38:34;5.43;;;3.10;;
19257;SDS011;9763;48.780;9.212;2022-12-05T14:41:59;2.93;;;2.63;;
19257;SDS011;9763;48.780;9.212;2022-12-05T14:45:29;3.23;;;2.93;;
19257;SDS011;9763;48.780;9.212;2022-12-05T14:48:58;5.33;;;3.53;;
19257;SDS011;9763;48.780;9.212;2022-12-05T14:53:22;3.77;;;3.20;;
19257;SDS011;9763;48.780;9.212;2022-12-05T14:56:59;2.97;;;2.70;;
19257;SDS011;9763;48.780;9.212;2022-12-05T15:00:32;3.30;;;2.83;;
19257;SDS011;9763;48.780;9.212;2022-12-05T15:04:03;2.93;;;2.63;;
19257;SDS011;9763;48.780;9.212;2022-12-05T15:07:39;3.30;;;3.00;;
19257;SDS011;9763;48.780;9.212;2022-12-05T15:11:04;3.37;;;3.07;;
19257;SDS011;9763;48.780;9.212;2022-12-05T15:14:28;4.80;;;3.43;;
19257;SDS011;9763;48.780;9.212;2022-12-05T15:18:02;4.17;;;3.40;;
19257;SDS011;9763;48.780;9.212;2022-12-05T15:21:42;4.67;;;3.27;;
19257;SDS011;9763;48.780;9.212;2022-12-05T15:25:22;3.07;;;2.77;;
19257;SDS011;9763;48.780;9.212;2022-12-05T15:28:58;3.30;;;3.00;;
19257;SDS011;9763;48.780;9.212;2022-12-05T15:32:27;3.80;;;3.40;;
19257;SDS011;9763;48.780;9.212;2022-12-05T15:35:51;3.70;;;3.23;;
19257;SDS011;9763;48.780;9.212;2022-12-05T15:39:19;3.20;;;2.77;;
19257;SDS011;9763;48.780;9.212;2022-12-05T15:42:47;3.70;;;2.93;;
19257;SDS011;9763;48.780;9.212;2022-12-05T15:46:17;2.80;;;2.60;;
19257;SDS011;9763;48.780;9.212;2022-12-05T15:49:44;5.07;;;3.50;;
19257;SDS011;9763;48.780;9.212;2022-12-05T15:53:09;3.47;;;2.87;;
19257;SDS011;9763;48.780;9.212;2022-12-05T15:56:40;3.60;;;3.00;;
19257;SDS011;9763;48.780;9.212;2022-12-05T16:00:13;3.10;;;2.80;;
19257;SDS011;9763;48.780;9.212;2022-12-05T16:03:40;5.50;;;3.60;;
19257;SDS011;9763;48.780;9.212;2022-12-05T16:07:12;5.20;;;4.07;;
19257;SDS011;9763;48.780;9.212;2022-12-05T16:10:36;4.30;;;3.57;;
19257;SDS011;9763;48.780;9.212;2022-12-05T16:14:02;4.93;;;3.53;;
19257;SDS011;9763;48.780;9.212;2022-12-05T16:17:30;3.50;;;3.20;;
19257;SDS011;9763;48.780;9.212;2022-12-05T16:21:03;3.90;;;3.50;;
19257;SDS011;9763;48.780;9.212;2022-12-05T16:25:00;3.80;;;3.50;;
19257;SDS011;9763;48.780;9.212;2022-12-05T16:28:34;4.40;;;4.00;;
19257;SDS011;9763;48.780;9.212;2022-12-05T16:32:02;3.97;;;3.50;;
19257;SDS011;9763;48.780;9.212;2022-12-05T16:35:36;3.73;;;3.40;;
19257;SDS011;9763;48.780;9.212;2022-12-05T16:39:02;4.23;;;3.80;;
19257;SDS011;9763;48.780;9.212;2022-12-05T16:42:28;4.20;;;3.80;;
19257;SDS011;9763;48.780;9.212;2022-12-05T16:45:53;4.77;;;4.37;;
19257;SDS011;9763;48.780;9.212;2022-12-05T16:49:23;4.17;;;3.70;;
19257;SDS011;9763;48.780;9.212;2022-12-05T16:52:59;3.60;;;3.30;;
19257;SDS011;9763;48.780;9.212;2022-12-05T16:56:39;3.70;;;3.40;;
19257;SDS011;9763;48.780;9.212;2022-12-05T17:00:04;4.27;;;3.83;;
19257;SDS011;9763;48.780;9.212;2022-12-05T17:03:29;4.27;;;3.83;;
19257;SDS011;9763;48.780;9.212;2022-12-05T17:06:58;5.20;;;4.27;;
19257;SDS011;9763;48.780;9.212;2022-12-05T17:10:23;3.83;;;3.40;;
19257;SDS011;9763;48.780;9.212;2022-12-05T17:13:47;4.10;;;3.70;;
19257;SDS011;9763;48.780;9.212;2022-12-05T17:17:12;4.20;;;3.73;;
19257;SDS011;9763;48.780;9.212;2022-12-05T17:20:41;4.20;;;3.80;;
19257;SDS011;9763;48.780;9.212;2022-12-05T17:24:10;10.33;;;3.90;;
19257;SDS011;9763;48.780;9.212;2022-12-05T17:27:38;3.93;;;3.50;;
19257;SDS011;9763;48.780;9.212;2022-12-05T17:31:01;4.23;;;3.60;;
19257;SDS011;9763;48.780;9.212;2022-12-05T17:34:25;4.53;;;4.13;;
19257;SDS011;9763;48.780;9.212;2022-12-05T17:37:50;4.10;;;3.73;;
19257;SDS011;9763;48.780;9.212;2022-12-05T17:41:16;5.33;;;4.60;;
19257;SDS011;9763;48.780;9.212;2022-12-05T17:44:41;4.53;;;3.90;;
19257;SDS011;9763;48.780;9.212;2022-12-05T17:48:05;4.40;;;4.00;;
19257;SDS011;9763;48.780;9.212;2022-12-05T17:51:31;4.37;;;3.83;;
19257;SDS011;9763;48.780;9.212;2022-12-05T17:55:14;5.00;;;4.50;;
19257;SDS011;9763;48.780;9.212;2022-12-05T17:58:42;4.80;;;4.37;;
19257;SDS011;9763;48.780;9.212;2022-12-05T18:02:05;4.87;;;4.37;;
19257;SDS011;9763;48.780;9.212;2022-12-05T18:05:32;4.50;;;4.07;;
19257;SDS011;9763;48.780;9.212;2022-12-05T18:08:55;8.03;;;4.67;;
19257;SDS011;9763;48.780;9.212;2022-12-05T18:12:19;6.40;;;5.10;;
19257;SDS011;9763;48.780;9.212;2022-12-05T18:15:45;4.90;;;4.23;;
19257;SDS011;9763;48.780;9.212;2022-12-05T18:19:09;6.53;;;5.27;;
19257;SDS011;9763;48.780;9.212;2022-12-05T18:22:33;6.00;;;4.87;;
19257;SDS011;9763;48.780;9.212;2022-12-05T18:25:58;5.07;;;4.27;;
19257;SDS011;9763;48.780;9.212;2022-12-05T18:29:22;4.93;;;4.17;;
19257;SDS011;9763;48.780;9.212;2022-12-05T18:32:47;5.60;;;4.73;;
19257;SDS011;9763;48.780;9.212;2022-12-05T18:36:11;4.97;;;3.97;;
19257;SDS011;9763;48.780;9.212;2022-12-05T18:39:37;4.33;;;3.50;;
19257;SDS011;9763;48.780;9.212;2022-12-05T18:43:01;4.30;;;3.60;;
19257;SDS011;9763;48.780;9.212;2022-12-05T18:46:25;4.13;;;3.73;;
19257;SDS011;9763;48.780;9.212;2022-12-05T18:49:50;3.90;;;3.53;;
19257;SDS011;9763;48.780;9.212;2022-12-05T18:53:14;4.43;;;4.03;;
19257;SDS011;9763;48.780;9.212;2022-12-05T18:56:37;4.33;;;3.93;;
19257;SDS011;9763;48.780;9.212;2022-12-05T19:00:01;4.50;;;3.50;;
19257;SDS011;9763;48.780;9.212;2022-12-05T19:03:26;4.67;;;3.30;;
19257;SDS011;9763;48.780;9.212;2022-12-05T19:06:51;3.90;;;3.60;;
19257;SDS011;9763;48.780;9.212;2022-12-05T19:10:18;6.13;;;4.90;;
19257;SDS011;9763;48.780;9.212;2022-12-05T19:13:42;5.07;;;4.23;;
19257;SDS011;9763;48.780;9.212;2022-12-05T19:17:05;5.20;;;4.13;;
19257;SDS011;9763;48.780;9.212;2022-12-05T19:20:29;4.23;;;3.83;;
19257;SDS011;9763;48.780;9.212;2022-12-05T19:23:54;5.63;;;4.60;;
19257;SDS011;9763;48.780;9.212;2022-12-05T19:27:18;5.10;;;4.60;;
19257;SDS011;9763;48.780;9.212;2022-12-05T19:30:42;4.43;;;3.67;;
19257;SDS011;9763;48.780;9.212;2022-12-05T19:34:06;8.80;;;3.90;;
19257;SDS011;9763;48.780;9.212;2022-12-05T19:37:30;5.90;;;5.30;;
19257;SDS011;9763;48.780;9.212;2022-12-05T19:40:55;6.27;;;5.17;;
19257;SDS011;9763;48.780;9.212;2022-12-05T19:44:19;5.50;;;4.20;;
19257;SDS011;9763;48.780;9.212;2022-12-05T19:47:42;5.83;;;4.70;;
19257;SDS011;9763;48.780;9.212;2022-12-05T19:51:05;7.40;;;4.83;;
19257;SDS011;9763;48.780;9.212;2022-12-05T19:54:29;5.10;;;4.60;;
19257;SDS011;9763;48.780;9.212;2022-12-05T19:57:54;4.80;;;4.30;;
19257;SDS011;9763;48.780;9.212;2022-12-05T20:01:19;5.90;;;4.87;;
19257;SDS011;9763;48.780;9.212;2022-12-05T20:04:45;5.20;;;4.70;;
19257;SDS011;9763;48.780;9.212;2022-12-05T20:08:08;6.90;;;5.00;;
19257;SDS011;9763;48.780;9.212;2022-12-05T20:11:32;5.73;;;4.33;;
19257;SDS011;9763;48.780;9.212;2022-12-05T20:14:57;5.53;;;4.50;;
19257;SDS011;9763;48.780;9.212;2022-12-05T20:18:21;4.83;;;4.27;;
19257;SDS011;9763;48.780;9.212;2022-12-05T20:21:44;4.70;;;4.30;;
19257;SDS011;9763;48.780;9.212;2022-12-05T20:25:08;6.40;;;4.60;;
19257;SDS011;9763;48.780;9.212;2022-12-05T20:28:31;4.47;;;4.07;;
19257;SDS011;9763;48.780;9.212;2022-12-05T20:31:56;4.87;;;4.37;;
19257;SDS011;9763;48.780;9.212;2022-12-05T20:35:20;4.57;;;4.10;;
19257;SDS011;9763;48.780;9.212;2022-12-05T20:38:45;4.50;;;4.10;;
19257;SDS011;9763;48.780;9.212;2022-12-05T20:42:09;4.87;;;3.70;;
19257;SDS011;9763;48.780;9.212;2022-12-05T20:45:33;4.33;;;3.20;;
19257;SDS011;9763;48.780;9.212;2022-12-05T20:48:57;4.33;;;3.93;;
19257;SDS011;9763;48.780;9.212;2022-12-05T20:52:21;4.20;;;3.80;;
19257;SDS011;9763;48.780;9.212;2022-12-05T20:55:45;4.67;;;4.27;;
19257;SDS011;9763;48.780;9.212;2022-12-05T20:59:09;4.20;;;3.80;;
19257;SDS011;9763;48.780;9.212;2022-12-05T21:02:34;5.20;;;4.17;;
19257;SDS011;9763;48.780;9.212;2022-12-05T21:05:59;5.50;;;4.37;;
19257;SDS011;9763;48.780;9.212;2022-12-05T21:09:28;6.73;;;5.23;;
19257;SDS011;9763;48.780;9.212;2022-12-05T21:12:52;4.87;;;3.93;;
19257;SDS011;9763;48.780;9.212;2022-12-05T21:16:17;4.03;;;3.40;;
19257;SDS011;9763;48.780;9.212;2022-12-05T21:19:43;4.20;;;3.80;;
19257;SDS011;9763;48.780;9.212;2022-12-05T21:23:08;4.30;;;3.90;;
19257;SDS011;9763;48.780;9.212;2022-12-05T21:26:32;4.27;;;3.83;;
19257;SDS011;9763;48.780;9.212;2022-12-05T21:29:57;7.37;;;4.57;;
19257;SDS011;9763;48.780;9.212;2022-12-05T21:33:21;4.07;;;3.67;;
19257;SDS011;9763;48.780;9.212;2022-12-05T21:36:49;6.03;;;4.30;;
19257;SDS011;9763;48.780;9.212;2022-12-05T21:40:14;5.20;;;4.40;;
19257;SDS011;9763;48.780;9.212;2022-12-05T21:43:38;5.47;;;4.10;;
19257;SDS011;9763;48.780;9.212;2022-12-05T21:47:02;4.80;;;4.00;;